createdAt,value
2016-08-31T00:02:03.561Z,17.9
2016-08-31T00:07:03.543Z,17.8
2016-08-31T00:12:03.609Z,17.8
2016-08-31T00:17:03.357Z,17.8
2016-08-31T00:22:03.768Z,17.7
2016-08-31T00:27:03.475Z,17.6
2016-08-31T00:32:03.301Z,17.6
2016-08-31T00:37:03.491Z,17.6
2016-08-31T00:42:03.603Z,17.5
2016-08-31T00:47:03.467Z,17.1
2016-08-31T00:52:03.572Z,17.1
2016-08-31T00:57:03.627Z,17.1
2016-08-31T01:02:03.514Z,17.1
2016-08-31T01:07:03.559Z,17.1
2016-08-31T01:12:03.728Z,17.1
2016-08-31T01:17:03.800Z,17.1
2016-08-31T01:22:03.768Z,17.0
2016-08-31T01:27:03.632Z,17.0
2016-08-31T01:32:03.426Z,17.1
2016-08-31T01:37:03.385Z,17.0
2016-08-31T01:42:03.202Z,17.0
2016-08-31T01:47:03.336Z,16.9
2016-08-31T01:52:03.318Z,16.9
2016-08-31T01:57:03.241Z,16.7
2016-08-31T02:02:03.449Z,16.7
2016-08-31T02:07:03.344Z,16.6
2016-08-31T02:12:03.465Z,16.5
2016-08-31T02:17:03.309Z,16.5
2016-08-31T02:22:02.939Z,16.4
2016-08-31T02:27:03.654Z,16.4
2016-08-31T02:32:03.367Z,16.3
2016-08-31T02:37:03.248Z,16.3
2016-08-31T02:42:03.547Z,16.3
2016-08-31T02:47:03.758Z,16.3
2016-08-31T02:52:02.959Z,16.3
2016-08-31T02:57:03.251Z,16.2
2016-08-31T03:02:03.641Z,16.2
2016-08-31T03:07:03.768Z,16.2
2016-08-31T03:12:03.404Z,16.2
2016-08-31T03:17:03.701Z,16.2
2016-08-31T03:22:03.755Z,16.1
2016-08-31T03:27:03.160Z,16.0
2016-08-31T03:32:03.319Z,16.0
2016-08-31T03:37:03.727Z,15.9
2016-08-31T03:42:03.043Z,15.9
2016-08-31T03:47:03.320Z,15.8
2016-08-31T03:52:03.670Z,15.8
2016-08-31T03:57:03.067Z,15.8
2016-08-31T04:02:08.441Z,15.7
2016-08-31T04:07:03.764Z,15.7
2016-08-31T04:12:03.278Z,15.7
2016-08-31T04:17:17.952Z,15.7
2016-08-31T04:22:03.074Z,15.7
2016-08-31T04:27:03.635Z,15.7
2016-08-31T04:32:16.856Z,15.6
2016-08-31T04:37:03.046Z,15.6
2016-08-31T04:42:03.662Z,15.5
2016-08-31T04:47:16.555Z,15.6
2016-08-31T04:52:02.983Z,15.6
2016-08-31T04:57:03.715Z,15.6
2016-08-31T05:02:16.429Z,15.5
2016-08-31T05:07:03.364Z,15.5
2016-08-31T05:12:02.995Z,15.6
2016-08-31T05:17:17.299Z,15.6
2016-08-31T05:22:03.469Z,15.7
2016-08-31T05:27:03.472Z,16.0
2016-08-31T05:32:16.967Z,16.1
2016-08-31T05:37:03.215Z,16.1
2016-08-31T05:42:03.362Z,16.3
2016-08-31T05:47:15.338Z,16.4
2016-08-31T05:52:03.317Z,16.5
2016-08-31T05:57:03.617Z,16.9
2016-08-31T06:02:17.314Z,17.1
2016-08-31T06:07:03.377Z,17.1
2016-08-31T06:12:03.071Z,17.3
2016-08-31T06:17:17.113Z,17.7
2016-08-31T06:22:03.418Z,17.7
2016-08-31T06:27:03.401Z,18.1
2016-08-31T06:32:16.655Z,18.3
2016-08-31T06:37:02.838Z,18.3
2016-08-31T06:42:03.615Z,18.6
2016-08-31T06:47:17.178Z,18.9
2016-08-31T06:52:03.652Z,19.1
2016-08-31T06:57:03.041Z,19.3
2016-08-31T07:02:16.318Z,19.6
2016-08-31T07:07:03.430Z,19.9
2016-08-31T07:12:03.020Z,20.1
2016-08-31T07:17:22.780Z,20.5
2016-08-31T07:22:03.195Z,20.8
2016-08-31T07:27:03.279Z,21.3
2016-08-31T07:32:17.343Z,21.7
2016-08-31T07:37:03.655Z,21.9
2016-08-31T07:42:02.841Z,21.9
2016-08-31T07:47:22.252Z,22.3
2016-08-31T07:52:02.987Z,22.6
2016-08-31T07:57:03.374Z,22.8
2016-08-31T08:02:16.991Z,23.2
2016-08-31T08:07:03.578Z,23.9
2016-08-31T08:12:03.639Z,23.9
2016-08-31T08:17:16.837Z,24.2
2016-08-31T08:22:03.057Z,24.5
2016-08-31T08:27:03.186Z,24.8
2016-08-31T08:32:18.126Z,25.3
2016-08-31T08:37:03.420Z,25.4
2016-08-31T08:42:03.505Z,25.6
2016-08-31T08:47:16.312Z,25.8
2016-08-31T08:52:03.670Z,26.1
2016-08-31T08:57:03.780Z,26.4
2016-08-31T09:02:16.991Z,26.3
2016-08-31T09:07:03.251Z,26.7
2016-08-31T09:12:03.333Z,27.0
2016-08-31T09:17:17.263Z,27.0
2016-08-31T09:22:03.725Z,27.4
2016-08-31T09:27:03.048Z,27.7
2016-08-31T09:32:18.251Z,28.0
2016-08-31T09:37:03.775Z,28.2
2016-08-31T09:42:03.097Z,28.8
2016-08-31T09:47:16.743Z,28.8
2016-08-31T09:52:03.761Z,28.8
2016-08-31T09:57:03.405Z,29.2
2016-08-31T10:02:16.308Z,29.5
2016-08-31T10:07:03.764Z,29.6
2016-08-31T10:12:03.535Z,29.5
2016-08-31T10:17:22.515Z,29.9
2016-08-31T10:22:03.691Z,30.3
2016-08-31T10:27:03.057Z,30.6
2016-08-31T10:32:17.394Z,31.2
2016-08-31T10:37:03.452Z,31.6
2016-08-31T10:42:03.588Z,31.6
2016-08-31T10:47:18.092Z,0.0
2016-08-31T10:52:03.404Z,31.3
2016-08-31T10:57:03.406Z,31.7
2016-08-31T11:02:17.396Z,31.7
2016-08-31T11:07:03.531Z,32.2
2016-08-31T11:12:03.016Z,32.2
2016-08-31T11:17:16.972Z,32.6
2016-08-31T11:22:03.723Z,33.1
2016-08-31T11:27:03.169Z,33.0
2016-08-31T11:32:17.382Z,32.9
2016-08-31T11:37:03.164Z,32.9
2016-08-31T11:42:03.595Z,32.7
2016-08-31T11:47:17.276Z,32.7
2016-08-31T11:52:03.241Z,32.7
2016-08-31T11:57:03.597Z,33.0
2016-08-31T12:02:16.780Z,32.9
2016-08-31T12:07:03.642Z,33.0
2016-08-31T12:12:03.485Z,33.0
2016-08-31T12:17:16.766Z,33.5
2016-08-31T12:22:03.302Z,33.5
2016-08-31T12:27:03.285Z,34.7
2016-08-31T12:32:16.700Z,35.5
2016-08-31T12:37:03.317Z,35.6
2016-08-31T12:42:03.721Z,35.6
2016-08-31T12:47:22.214Z,35.6
2016-08-31T12:52:03.782Z,34.6
2016-08-31T12:57:03.443Z,34.6
2016-08-31T13:02:16.958Z,33.4
2016-08-31T13:07:03.983Z,33.1
2016-08-31T13:12:03.383Z,33.1
2016-08-31T13:17:16.577Z,34.4
2016-08-31T13:22:03.737Z,34.5
2016-08-31T13:27:03.558Z,34.4
2016-08-31T13:32:17.375Z,35.3
2016-08-31T13:37:03.771Z,35.3
2016-08-31T13:42:03.380Z,36.4
2016-08-31T13:47:16.785Z,38.0
2016-08-31T13:52:03.365Z,37.9
2016-08-31T13:57:03.604Z,38.6
2016-08-31T20:02:03.928Z,23.6
2016-08-31T20:07:03.418Z,23.6
2016-08-31T20:12:03.020Z,23.7
2016-08-31T20:17:03.274Z,23.6
2016-08-31T20:22:03.546Z,23.5
2016-08-31T20:27:03.319Z,23.5
2016-08-31T20:32:03.811Z,23.5
2016-08-31T20:37:03.187Z,23.5
2016-08-31T20:42:02.789Z,23.6
2016-08-31T20:47:03.357Z,23.6
2016-08-31T20:52:03.492Z,23.4
2016-08-31T20:57:03.349Z,23.4
2016-08-31T21:07:03.370Z,23.4
2016-08-31T21:12:03.054Z,23.3
2016-08-31T21:17:03.586Z,23.1
2016-08-31T21:22:03.408Z,23.0
2016-08-31T21:27:03.321Z,23.0
2016-08-31T21:32:03.292Z,22.8
2016-08-31T21:37:03.344Z,22.7
2016-08-31T21:42:03.428Z,22.5
2016-08-31T21:47:03.518Z,22.2
2016-08-31T21:52:03.525Z,22.2
2016-08-31T21:57:03.986Z,22.0
2016-08-31T22:02:03.063Z,21.9
2016-08-31T22:07:03.140Z,21.9
2016-08-31T22:12:02.941Z,21.9
2016-08-31T22:22:03.718Z,21.5
2016-08-31T22:27:03.807Z,21.5
2016-08-31T22:32:03.261Z,21.3
2016-08-31T22:37:03.666Z,21.2
2016-08-31T22:42:03.086Z,21.2
2016-08-31T22:47:03.806Z,21.1
2016-08-31T22:52:03.091Z,21.0
2016-08-31T22:57:03.242Z,21.0
2016-08-31T23:02:05.633Z,20.9
2016-08-31T23:07:03.653Z,20.9
2016-08-31T23:12:03.169Z,20.8
2016-08-31T23:17:03.760Z,20.8
2016-08-31T23:22:03.220Z,20.7
2016-08-31T23:27:03.728Z,20.6
2016-08-31T23:32:03.060Z,20.5
2016-08-31T23:37:03.477Z,20.6
2016-08-31T23:42:03.014Z,20.5
2016-08-31T23:47:03.210Z,20.4
2016-08-31T23:52:03.659Z,20.4
2016-08-31T23:57:02.993Z,20.3
